Time;durP1;ratioP1;P1;durP2;ratioP2;P2;SDS_P1;SDS_P2;PMS_P1;PMS_P2;Temp;Humidity;BMP_temperature;BMP_pressure;BME280_temperature;BME280_humidity;BME280_pressure;Samples;Min_cycle;Max_cycle;Signal;HPM_P1;HPM_P2
2021/06/12 00:00:53;;;;;;;9.20;6.95;;;;;;;;;;5086406;28;20420;-70
2021/06/12 00:03:20;;;;;;;7.15;6.30;;;;;;;;;;5084778;28;20078;-69
2021/06/12 00:05:46;;;;;;;7.25;6.32;;;;;;;;;;5085207;28;20048;-69
2021/06/12 00:08:13;;;;;;;9.20;7.05;;;;;;;;;;5087247;28;20058;-69
2021/06/12 00:10:39;;;;;;;8.00;6.60;;;;;;;;;;5084343;28;20049;-69
2021/06/12 00:13:06;;;;;;;8.48;6.80;;;;;;;;;;5085243;28;20051;-70
2021/06/12 00:15:34;;;;;;;9.35;7.18;;;;;;;;;;5083012;28;20237;-69
2021/06/12 00:18:00;;;;;;;8.30;7.30;;;;;;;;;;5085641;28;20059;-70
2021/06/12 00:20:30;;;;;;;10.13;7.28;;;;;;;;;;5081975;28;20044;-69
2021/06/12 00:22:56;;;;;;;8.18;6.47;;;;;;;;;;5082512;28;20048;-68
2021/06/12 00:25:25;;;;;;;9.95;6.45;;;;;;;;;;5094385;28;20059;-68
2021/06/12 00:27:51;;;;;;;8.65;6.07;;;;;;;;;;5094134;28;20068;-68
2021/06/12 00:30:17;;;;;;;7.15;6.45;;;;;;;;;;5094309;28;20048;-68
2021/06/12 00:32:44;;;;;;;6.95;6.25;;;;;;;;;;5080783;28;20477;-68
2021/06/12 00:35:12;;;;;;;7.97;6.65;;;;;;;;;;5075342;28;20045;-68
2021/06/12 00:37:40;;;;;;;7.90;5.72;;;;;;;;;;5073998;28;20474;-68
2021/06/12 00:40:09;;;;;;;7.22;5.80;;;;;;;;;;5074156;28;20041;-68
2021/06/12 00:42:35;;;;;;;7.28;5.78;;;;;;;;;;5073781;28;20048;-68
2021/06/12 00:45:01;;;;;;;6.53;5.78;;;;;;;;;;5093896;28;20095;-68
2021/06/12 00:47:27;;;;;;;10.50;6.20;;;;;;;;;;5093338;28;20087;-68
2021/06/12 00:49:53;;;;;;;6.88;5.75;;;;;;;;;;5073773;28;20053;-69
2021/06/12 00:52:19;;;;;;;7.88;6.75;;;;;;;;;;5073679;28;20457;-69
2021/06/12 00:54:46;;;;;;;7.05;5.80;;;;;;;;;;5091395;28;20095;-69
2021/06/12 00:57:13;;;;;;;9.13;6.40;;;;;;;;;;5093475;28;20044;-68
2021/06/12 00:59:39;;;;;;;7.28;5.82;;;;;;;;;;5093641;28;20386;-69
2021/06/12 01:02:05;;;;;;;6.45;5.72;;;;;;;;;;5093641;28;20047;-69
2021/06/12 01:04:31;;;;;;;6.95;6.25;;;;;;;;;;5093780;28;20040;-70
2021/06/12 01:06:58;;;;;;;7.80;6.80;;;;;;;;;;5086528;28;20080;-70
2021/06/12 01:09:23;;;;;;;8.63;6.15;;;;;;;;;;5073728;28;20090;-70
2021/06/12 01:11:58;;;;;;;7.57;6.82;;;;;;;;;;5074372;28;20138;-70
2021/06/12 01:14:25;;;;;;;6.28;5.65;;;;;;;;;;5074264;28;20048;-70
2021/06/12 01:16:56;;;;;;;7.95;6.35;;;;;;;;;;5074185;28;20048;-70
2021/06/12 01:19:32;;;;;;;7.55;5.68;;;;;;;;;;5073418;28;20055;-69
2021/06/12 01:22:00;;;;;;;6.72;6.05;;;;;;;;;;5074129;28;20098;-69
2021/06/12 01:24:48;;;;;;;6.63;5.97;;;;;;;;;;5073020;28;20044;-69
2021/06/12 01:27:45;;;;;;;9.98;6.15;;;;;;;;;;5071498;28;20052;-69
2021/06/12 01:30:15;;;;;;;7.53;5.95;;;;;;;;;;5073628;28;20048;-69
2021/06/12 01:32:45;;;;;;;7.20;5.18;;;;;;;;;;5073337;28;20090;-70
2021/06/12 01:35:16;;;;;;;7.65;5.85;;;;;;;;;;5073548;28;20508;-69
2021/06/12 01:37:43;;;;;;;6.32;5.57;;;;;;;;;;5072839;28;20051;-69
2021/06/12 01:40:10;;;;;;;8.18;6.43;;;;;;;;;;5073209;28;20045;-69
2021/06/12 01:42:38;;;;;;;6.65;5.93;;;;;;;;;;5073022;28;20476;-69
2021/06/12 01:45:06;;;;;;;6.30;5.28;;;;;;;;;;5072895;28;20048;-69
2021/06/12 01:47:33;;;;;;;7.88;7.07;;;;;;;;;;5072824;28;20052;-69
2021/06/12 01:50:00;;;;;;;9.30;5.55;;;;;;;;;;5072794;28;20428;-69
2021/06/12 01:52:28;;;;;;;6.90;6.20;;;;;;;;;;5072354;28;20053;-69
2021/06/12 01:54:55;;;;;;;7.18;6.47;;;;;;;;;;5072294;28;20036;-69
2021/06/12 01:57:21;;;;;;;8.77;6.30;;;;;;;;;;5071626;28;20052;-69
2021/06/12 01:59:48;;;;;;;6.78;5.50;;;;;;;;;;5072216;28;20055;-69
2021/06/12 02:02:16;;;;;;;8.18;6.15;;;;;;;;;;5072789;28;20114;-70
2021/06/12 02:04:43;;;;;;;6.72;6.03;;;;;;;;;;5072527;28;20052;-70
2021/06/12 02:07:10;;;;;;;6.13;5.38;;;;;;;;;;5072360;28;20063;-69
2021/06/12 02:09:37;;;;;;;7.13;6.00;;;;;;;;;;5072656;28;20060;-70
2021/06/12 02:12:05;;;;;;;7.50;5.90;;;;;;;;;;5083702;28;20140;-70
2021/06/12 02:14:32;;;;;;;7.55;5.95;;;;;;;;;;5092747;28;20050;-70
2021/06/12 02:16:58;;;;;;;7.93;6.10;;;;;;;;;;5073111;28;20500;-70
2021/06/12 02:19:25;;;;;;;10.10;6.97;;;;;;;;;;5072613;28;20057;-70
2021/06/12 02:21:52;;;;;;;8.50;6.13;;;;;;;;;;5072857;28;20427;-69
2021/06/12 02:24:19;;;;;;;7.35;5.60;;;;;;;;;;5073117;28;20508;-69
2021/06/12 02:26:46;;;;;;;7.07;6.15;;;;;;;;;;5079834;28;20063;-69
2021/06/12 02:29:12;;;;;;;8.48;6.80;;;;;;;;;;5072096;28;20055;-69
2021/06/12 02:31:42;;;;;;;7.43;6.00;;;;;;;;;;5081361;28;20050;-70
2021/06/12 02:34:08;;;;;;;7.90;6.38;;;;;;;;;;5092294;28;20058;-70
2021/06/12 02:36:34;;;;;;;9.10;6.53;;;;;;;;;;5086873;28;20044;-70
2021/06/12 02:39:02;;;;;;;7.57;5.80;;;;;;;;;;5072217;28;20055;-70
2021/06/12 02:41:28;;;;;;;7.40;5.95;;;;;;;;;;5077666;28;20044;-69
2021/06/12 02:43:54;;;;;;;8.23;6.70;;;;;;;;;;5089255;28;20050;-69
2021/06/12 02:46:24;;;;;;;6.82;4.85;;;;;;;;;;5084038;28;20048;-71
2021/06/12 02:48:52;;;;;;;7.90;5.90;;;;;;;;;;5076219;28;20451;-71
2021/06/12 02:51:18;;;;;;;6.63;5.88;;;;;;;;;;5075772;28;20045;-70
2021/06/12 02:53:45;;;;;;;6.72;6.03;;;;;;;;;;5081618;28;20267;-70
2021/06/12 02:56:15;;;;;;;6.85;5.82;;;;;;;;;;5084327;28;20036;-70
2021/06/12 02:58:41;;;;;;;6.20;5.25;;;;;;;;;;5092033;28;20048;-70
2021/06/12 03:01:08;;;;;;;9.50;5.88;;;;;;;;;;5096136;28;20052;-70
2021/06/12 03:03:34;;;;;;;7.93;6.88;;;;;;;;;;5095392;28;20051;-70
2021/06/12 03:06:01;;;;;;;8.82;5.60;;;;;;;;;;5086079;28;20052;-70
2021/06/12 03:08:32;;;;;;;5.85;5.25;;;;;;;;;;5075638;28;20060;-70
2021/06/12 03:10:58;;;;;;;7.63;6.35;;;;;;;;;;5075776;28;20053;-70
2021/06/12 03:13:27;;;;;;;8.80;6.05;;;;;;;;;;5075981;28;20400;-70
2021/06/12 03:15:54;;;;;;;9.15;7.55;;;;;;;;;;5075265;28;20087;-71
2021/06/12 03:18:20;;;;;;;7.43;6.30;;;;;;;;;;5075485;28;20045;-70
2021/06/12 03:20:47;;;;;;;6.68;5.95;;;;;;;;;;5075511;28;20048;-70
2021/06/12 03:23:13;;;;;;;9.35;6.30;;;;;;;;;;5075037;28;20131;-70
2021/06/12 03:25:40;;;;;;;7.43;5.57;;;;;;;;;;5075355;28;20496;-70
2021/06/12 03:28:06;;;;;;;8.57;6.90;;;;;;;;;;5069652;28;20097;-70
2021/06/12 03:30:33;;;;;;;8.73;5.97;;;;;;;;;;5075330;28;20539;-70
2021/06/12 03:32:59;;;;;;;8.20;6.57;;;;;;;;;;5075190;28;20079;-70
2021/06/12 03:35:26;;;;;;;7.78;6.32;;;;;;;;;;5075129;28;20400;-70
2021/06/12 03:37:52;;;;;;;8.25;6.13;;;;;;;;;;5074549;28;20066;-70
2021/06/12 03:40:18;;;;;;;9.60;6.57;;;;;;;;;;5074676;28;20044;-70
2021/06/12 03:42:45;;;;;;;8.60;5.25;;;;;;;;;;5065925;28;20441;-70
2021/06/12 03:45:13;;;;;;;8.05;5.90;;;;;;;;;;5075538;28;20458;-71
2021/06/12 03:47:41;;;;;;;6.85;6.10;;;;;;;;;;5075294;28;20057;-70
2021/06/12 03:50:09;;;;;;;7.10;6.10;;;;;;;;;;5075488;28;20074;-70
2021/06/12 03:52:36;;;;;;;8.77;6.05;;;;;;;;;;5074840;28;20059;-70
2021/06/12 03:55:04;;;;;;;8.05;6.22;;;;;;;;;;5073424;28;20047;-70
2021/06/12 03:57:30;;;;;;;8.20;6.75;;;;;;;;;;5067260;28;20053;-70
2021/06/12 03:59:56;;;;;;;7.82;6.47;;;;;;;;;;5055684;28;20136;-70
2021/06/12 04:02:24;;;;;;;7.65;6.32;;;;;;;;;;5055278;28;20057;-70
2021/06/12 04:04:51;;;;;;;7.45;6.47;;;;;;;;;;5074379;28;20051;-69
2021/06/12 04:07:17;;;;;;;6.88;5.90;;;;;;;;;;5071483;28;20389;-69
2021/06/12 04:09:44;;;;;;;8.18;6.70;;;;;;;;;;5076053;28;20460;-69
2021/06/12 04:12:11;;;;;;;6.72;6.03;;;;;;;;;;5087503;28;20048;-69
2021/06/12 04:14:37;;;;;;;9.00;5.95;;;;;;;;;;5096839;28;20048;-69
2021/06/12 04:17:04;;;;;;;8.05;6.10;;;;;;;;;;5095885;28;20059;-70
2021/06/12 04:19:30;;;;;;;16.80;6.85;;;;;;;;;;5094411;28;20059;-69
2021/06/12 04:21:57;;;;;;;7.55;6.18;;;;;;;;;;5094793;28;20477;-70
2021/06/12 04:24:23;;;;;;;10.25;6.78;;;;;;;;;;5093449;28;20052;-69
2021/06/12 04:26:49;;;;;;;8.93;6.07;;;;;;;;;;5091997;28;20055;-69
2021/06/12 04:29:15;;;;;;;7.13;6.38;;;;;;;;;;5094391;28;20051;-70
2021/06/12 04:31:41;;;;;;;6.93;5.80;;;;;;;;;;5094455;28;20048;-70
2021/06/12 04:34:07;;;;;;;8.32;5.90;;;;;;;;;;5093993;28;20044;-70
2021/06/12 04:36:33;;;;;;;7.15;6.45;;;;;;;;;;5094187;28;20488;-70
2021/06/12 04:39:01;;;;;;;6.93;5.55;;;;;;;;;;5074910;28;20054;-70
2021/06/12 04:41:27;;;;;;;6.80;5.47;;;;;;;;;;5074284;28;20048;-70
2021/06/12 04:43:53;;;;;;;6.75;5.70;;;;;;;;;;5077835;28;20051;-70
2021/06/12 04:46:19;;;;;;;9.40;6.93;;;;;;;;;;5094309;28;20054;-70
2021/06/12 04:48:45;;;;;;;8.55;7.03;;;;;;;;;;5093865;28;20438;-70
2021/06/12 04:51:11;;;;;;;7.57;6.68;;;;;;;;;;5094445;28;20052;-70
2021/06/12 04:53:37;;;;;;;13.07;7.55;;;;;;;;;;5085263;28;20485;-70
2021/06/12 04:56:05;;;;;;;8.55;7.10;;;;;;;;;;5074014;28;20045;-70
2021/06/12 04:58:31;;;;;;;12.75;6.78;;;;;;;;;;5092043;28;20059;-70
2021/06/12 05:00:57;;;;;;;16.92;7.07;;;;;;;;;;5094154;28;20087;-70
2021/06/12 05:03:23;;;;;;;13.18;7.22;;;;;;;;;;5087177;28;20052;-70
2021/06/12 05:05:49;;;;;;;11.43;9.93;;;;;;;;;;5073237;28;20048;-70
2021/06/12 05:08:16;;;;;;;8.65;7.75;;;;;;;;;;5079178;28;20496;-70
2021/06/12 05:10:42;;;;;;;9.95;7.57;;;;;;;;;;5092344;28;20177;-69
2021/06/12 05:13:10;;;;;;;8.63;7.75;;;;;;;;;;5078063;28;20073;-70
2021/06/12 05:15:36;;;;;;;8.00;7.10;;;;;;;;;;5093612;28;20384;-70
2021/06/12 05:18:04;;;;;;;8.32;7.40;;;;;;;;;;5092184;28;20100;-70
2021/06/12 05:20:31;;;;;;;10.13;6.95;;;;;;;;;;5093220;28;20048;-69
2021/06/12 05:22:57;;;;;;;20.17;7.60;;;;;;;;;;5091980;28;20054;-69
2021/06/12 05:25:23;;;;;;;12.73;7.72;;;;;;;;;;5073482;28;20040;-70
2021/06/12 05:27:49;;;;;;;13.25;8.95;;;;;;;;;;5090518;28;20044;-69
2021/06/12 05:30:18;;;;;;;21.17;15.13;;;;;;;;;;5093372;28;20054;-69
2021/06/12 05:32:44;;;;;;;26.67;16.23;;;;;;;;;;5092942;28;20051;-69
2021/06/12 05:35:10;;;;;;;20.50;16.33;;;;;;;;;;5092830;28;20044;-69
2021/06/12 05:37:37;;;;;;;22.52;15.70;;;;;;;;;;5093123;28;20056;-70
2021/06/12 05:40:03;;;;;;;16.27;13.35;;;;;;;;;;5090351;28;20060;-69
2021/06/12 05:42:29;;;;;;;17.75;11.90;;;;;;;;;;5087693;28;20408;-69
2021/06/12 05:44:55;;;;;;;12.57;10.85;;;;;;;;;;5093100;28;20393;-69
2021/06/12 05:47:22;;;;;;;13.68;11.27;;;;;;;;;;5091724;28;20134;-69
2021/06/12 05:49:48;;;;;;;11.68;9.73;;;;;;;;;;5072497;28;20397;-69
2021/06/12 05:52:14;;;;;;;11.63;10.05;;;;;;;;;;5072945;28;20080;-69
2021/06/12 05:54:40;;;;;;;14.82;11.18;;;;;;;;;;5077338;28;20101;-69
2021/06/12 05:57:07;;;;;;;12.63;10.25;;;;;;;;;;5093025;28;20563;-69
2021/06/12 05:59:33;;;;;;;12.75;9.15;;;;;;;;;;5091745;28;20484;-69
2021/06/12 06:01:59;;;;;;;9.48;8.50;;;;;;;;;;5092883;28;20059;-69
2021/06/12 06:04:26;;;;;;;12.48;8.88;;;;;;;;;;5076777;28;20143;-69
2021/06/12 06:06:52;;;;;;;10.20;9.20;;;;;;;;;;5072592;28;20059;-69
2021/06/12 06:09:18;;;;;;;8.82;8.00;;;;;;;;;;5072837;28;20044;-69
2021/06/12 06:11:44;;;;;;;9.85;8.65;;;;;;;;;;5080953;28;20074;-69
2021/06/12 06:14:10;;;;;;;10.13;9.18;;;;;;;;;;5091889;28;20087;-69
2021/06/12 06:16:36;;;;;;;10.48;9.15;;;;;;;;;;5084541;28;20051;-69
2021/06/12 06:19:02;;;;;;;10.52;8.15;;;;;;;;;;5083818;28;20059;-69
2021/06/12 06:21:30;;;;;;;9.13;8.23;;;;;;;;;;5092994;28;20056;-69
2021/06/12 06:23:56;;;;;;;9.40;8.50;;;;;;;;;;5090552;28;20052;-69
2021/06/12 06:26:23;;;;;;;10.75;8.30;;;;;;;;;;5092449;28;20055;-69
2021/06/12 06:28:49;;;;;;;10.73;8.30;;;;;;;;;;5091862;28;20075;-69
2021/06/12 06:31:15;;;;;;;8.63;7.63;;;;;;;;;;5089321;28;20052;-69
2021/06/12 06:33:41;;;;;;;9.18;8.20;;;;;;;;;;5091557;28;20044;-69
2021/06/12 06:36:07;;;;;;;9.73;8.38;;;;;;;;;;5092546;28;20074;-69
2021/06/12 06:38:34;;;;;;;9.55;8.05;;;;;;;;;;5091950;28;20063;-69
2021/06/12 06:41:00;;;;;;;9.85;8.05;;;;;;;;;;5092439;28;20373;-69
2021/06/12 06:43:27;;;;;;;9.23;8.05;;;;;;;;;;5078781;28;20170;-69
2021/06/12 06:45:53;;;;;;;9.75;8.25;;;;;;;;;;5074621;28;20160;-69
2021/06/12 06:48:19;;;;;;;8.48;7.53;;;;;;;;;;5091641;28;20048;-70
2021/06/12 06:50:46;;;;;;;9.13;8.18;;;;;;;;;;5074557;28;20587;-70
2021/06/12 06:53:12;;;;;;;8.85;7.57;;;;;;;;;;5075871;28;20044;-70
2021/06/12 06:55:40;;;;;;;8.50;7.35;;;;;;;;;;5090347;28;20044;-69
2021/06/12 06:58:07;;;;;;;9.73;7.57;;;;;;;;;;5084343;28;20057;-70
2021/06/12 07:00:33;;;;;;;10.50;7.70;;;;;;;;;;5075948;28;20044;-70
2021/06/12 07:03:00;;;;;;;11.73;7.82;;;;;;;;;;5079212;28;20083;-70
2021/06/12 07:05:26;;;;;;;8.02;7.20;;;;;;;;;;5084794;28;20044;-71
2021/06/12 07:07:52;;;;;;;7.93;7.07;;;;;;;;;;5084595;28;20512;-70
2021/06/12 07:10:18;;;;;;;7.47;6.70;;;;;;;;;;5083273;28;20044;-70
2021/06/12 07:12:45;;;;;;;8.45;6.88;;;;;;;;;;5079667;28;20462;-69
2021/06/12 07:15:12;;;;;;;7.45;6.65;;;;;;;;;;5078387;28;20139;-70
2021/06/12 07:17:38;;;;;;;8.65;6.88;;;;;;;;;;5084383;28;20048;-70
2021/06/12 07:20:07;;;;;;;7.43;6.72;;;;;;;;;;5079816;28;20101;-70
2021/06/12 07:22:33;;;;;;;9.50;7.13;;;;;;;;;;5081214;28;20051;-70
2021/06/12 07:24:59;;;;;;;8.90;7.53;;;;;;;;;;5082021;28;20059;-70
2021/06/12 07:27:25;;;;;;;9.80;7.65;;;;;;;;;;5079547;28;20435;-70
2021/06/12 07:29:52;;;;;;;8.00;7.20;;;;;;;;;;5084535;28;20052;-69
2021/06/12 07:32:18;;;;;;;8.65;7.82;;;;;;;;;;5085382;28;20047;-70
2021/06/12 07:34:44;;;;;;;13.98;7.85;;;;;;;;;;5084203;28;20058;-70
2021/06/12 07:37:11;;;;;;;8.48;7.35;;;;;;;;;;5076022;28;20055;-70
2021/06/12 07:39:37;;;;;;;8.60;6.93;;;;;;;;;;5076101;28;20056;-70
2021/06/12 07:42:03;;;;;;;9.57;7.82;;;;;;;;;;5093181;28;20059;-70
2021/06/12 07:44:29;;;;;;;9.15;8.25;;;;;;;;;;5092581;28;20052;-70
2021/06/12 07:46:57;;;;;;;8.90;8.10;;;;;;;;;;5089581;28;20213;-70
2021/06/12 07:49:23;;;;;;;10.02;8.77;;;;;;;;;;5093541;28;20044;-70
2021/06/12 07:51:49;;;;;;;9.40;6.78;;;;;;;;;;5085907;28;20063;-70
2021/06/12 07:54:15;;;;;;;17.52;7.55;;;;;;;;;;5082076;28;20069;-70
2021/06/12 07:56:41;;;;;;;7.93;7.10;;;;;;;;;;5082036;28;20473;-70
2021/06/12 07:59:07;;;;;;;9.38;7.65;;;;;;;;;;5091197;28;20045;-71
2021/06/12 08:01:33;;;;;;;9.82;6.90;;;;;;;;;;5074214;28;20056;-70
2021/06/12 08:04:01;;;;;;;9.23;6.63;;;;;;;;;;5084002;28;20682;-70
2021/06/12 08:06:27;;;;;;;7.35;6.53;;;;;;;;;;5091654;28;20481;-70
2021/06/12 08:08:53;;;;;;;10.35;6.70;;;;;;;;;;5073620;28;20053;-71
2021/06/12 08:11:19;;;;;;;7.22;6.53;;;;;;;;;;5091696;28;20055;-70
2021/06/12 08:13:45;;;;;;;8.15;6.70;;;;;;;;;;5093093;28;20063;-70
2021/06/12 08:16:11;;;;;;;7.35;6.57;;;;;;;;;;5089311;28;20047;-70
2021/06/12 08:18:37;;;;;;;11.40;6.47;;;;;;;;;;5084798;28;20048;-70
2021/06/12 08:21:05;;;;;;;7.10;5.85;;;;;;;;;;5083419;28;20048;-70
2021/06/12 08:23:31;;;;;;;7.32;5.93;;;;;;;;;;5085194;28;20055;-70
2021/06/12 08:25:57;;;;;;;7.10;6.00;;;;;;;;;;5083408;28;20914;-70
2021/06/12 08:28:23;;;;;;;7.40;6.70;;;;;;;;;;5082056;28;20052;-70
2021/06/12 08:30:49;;;;;;;8.05;6.57;;;;;;;;;;5082957;28;20052;-70
2021/06/12 08:33:15;;;;;;;8.63;6.57;;;;;;;;;;5079969;28;20778;-69
2021/06/12 08:35:41;;;;;;;8.38;6.50;;;;;;;;;;5083719;28;20040;-70
2021/06/12 08:38:09;;;;;;;7.78;6.72;;;;;;;;;;5079661;28;20054;-70
2021/06/12 08:40:36;;;;;;;9.30;6.47;;;;;;;;;;5077058;28;20477;-70
2021/06/12 08:43:05;;;;;;;7.38;6.57;;;;;;;;;;5081361;28;20131;-70
2021/06/12 08:45:31;;;;;;;6.53;5.93;;;;;;;;;;5082099;28;20587;-70
2021/06/12 08:47:58;;;;;;;8.68;6.53;;;;;;;;;;5082691;28;20041;-70
2021/06/12 08:50:24;;;;;;;7.28;5.93;;;;;;;;;;5082363;28;20044;-70
2021/06/12 08:52:52;;;;;;;8.20;6.22;;;;;;;;;;5083268;28;20045;-70
2021/06/12 08:55:19;;;;;;;8.10;5.97;;;;;;;;;;5084668;28;20044;-69
2021/06/12 08:57:47;;;;;;;6.63;6.03;;;;;;;;;;5081599;28;20045;-70
2021/06/12 09:00:14;;;;;;;7.05;6.35;;;;;;;;;;5082485;28;20052;-71
2021/06/12 09:03:06;;;;;;;7.30;6.05;;;;;;;;;;5083952;28;20481;-69
2021/06/12 09:05:39;;;;;;;7.03;5.68;;;;;;;;;;5070877;28;20623;-70
2021/06/12 09:08:06;;;;;;;6.32;5.57;;;;;;;;;;5081877;28;20134;-70
2021/06/12 09:10:34;;;;;;;6.47;5.43;;;;;;;;;;5084264;28;20474;-71
2021/06/12 09:13:00;;;;;;;5.63;4.97;;;;;;;;;;5080693;28;20044;-70
2021/06/12 09:15:27;;;;;;;5.95;4.82;;;;;;;;;;5082580;28;20067;-70
2021/06/12 09:17:56;;;;;;;6.53;4.97;;;;;;;;;;5082712;28;20052;-70
2021/06/12 09:20:40;;;;;;;5.85;5.25;;;;;;;;;;5082834;28;20141;-69
2021/06/12 09:23:07;;;;;;;6.35;4.93;;;;;;;;;;5083103;28;20170;-69
2021/06/12 09:25:40;;;;;;;5.18;4.65;;;;;;;;;;5084456;28;20059;-70
2021/06/12 09:28:06;;;;;;;6.53;4.60;;;;;;;;;;5078270;28;20056;-71
2021/06/12 09:30:32;;;;;;;7.60;5.32;;;;;;;;;;5081486;28;20052;-70
2021/06/12 09:32:58;;;;;;;5.00;4.25;;;;;;;;;;5077670;28;20052;-70
2021/06/12 09:35:30;;;;;;;5.03;4.15;;;;;;;;;;5083207;28;20453;-69
2021/06/12 09:37:57;;;;;;;4.80;4.18;;;;;;;;;;5084983;28;20043;-70
2021/06/12 09:40:23;;;;;;;6.28;4.28;;;;;;;;;;5079448;28;20058;-70
2021/06/12 09:42:52;;;;;;;5.45;4.13;;;;;;;;;;5081617;28;20044;-70
2021/06/12 09:45:21;;;;;;;6.63;3.72;;;;;;;;;;5082965;28;20036;-70
2021/06/12 09:47:47;;;;;;;6.40;4.18;;;;;;;;;;5084888;28;20481;-70
2021/06/12 09:50:14;;;;;;;6.28;3.88;;;;;;;;;;5083540;28;20093;-71
2021/06/12 09:52:45;;;;;;;6.22;4.05;;;;;;;;;;5082994;28;20036;-70
2021/06/12 09:55:25;;;;;;;6.32;4.00;;;;;;;;;;5080814;28;20477;-70
2021/06/12 09:57:53;;;;;;;5.38;3.80;;;;;;;;;;5081619;28;20405;-71
2021/06/12 10:00:29;;;;;;;6.03;4.10;;;;;;;;;;5083760;28;20048;-70
2021/06/12 10:02:56;;;;;;;6.45;4.00;;;;;;;;;;5078696;28;20049;-71
2021/06/12 10:05:22;;;;;;;4.10;3.70;;;;;;;;;;5081476;28;20151;-71
2021/06/12 10:07:49;;;;;;;4.70;3.88;;;;;;;;;;5082155;28;20040;-71
2021/06/12 10:10:16;;;;;;;6.15;4.35;;;;;;;;;;5083690;28;20072;-70
2021/06/12 10:12:43;;;;;;;7.30;4.07;;;;;;;;;;5085050;28;20044;-71
2021/06/12 10:15:12;;;;;;;4.75;3.72;;;;;;;;;;5082317;28;20502;-71
2021/06/12 10:17:41;;;;;;;7.03;4.22;;;;;;;;;;5083746;28;20056;-71
2021/06/12 10:20:08;;;;;;;7.35;4.40;;;;;;;;;;5080746;28;20480;-71
2021/06/12 10:22:35;;;;;;;5.70;3.80;;;;;;;;;;5080234;28;20057;-70
2021/06/12 10:25:01;;;;;;;8.50;4.22;;;;;;;;;;5084806;28;20048;-70
2021/06/12 10:27:28;;;;;;;5.30;3.70;;;;;;;;;;5081971;28;20050;-70
2021/06/12 10:29:54;;;;;;;4.90;4.03;;;;;;;;;;5080847;28;20044;-70
2021/06/12 10:32:21;;;;;;;4.80;3.90;;;;;;;;;;5075732;28;20400;-70
2021/06/12 10:34:51;;;;;;;7.32;3.88;;;;;;;;;;5081486;28;20683;-70
2021/06/12 10:37:17;;;;;;;5.82;3.92;;;;;;;;;;5082122;28;20052;-69
2021/06/12 10:39:43;;;;;;;6.03;4.30;;;;;;;;;;5080175;28;20082;-69
2021/06/12 10:42:12;;;;;;;4.53;3.75;;;;;;;;;;5079529;28;20072;-69
2021/06/12 10:44:38;;;;;;;6.22;4.10;;;;;;;;;;5076754;28;20049;-70
2021/06/12 10:47:04;;;;;;;4.82;3.60;;;;;;;;;;5076233;28;20045;-71
2021/06/12 10:49:34;;;;;;;5.05;3.90;;;;;;;;;;5077774;28;20040;-71
2021/06/12 10:52:00;;;;;;;5.20;3.72;;;;;;;;;;5077365;28;20564;-71
2021/06/12 10:54:35;;;;;;;5.35;4.10;;;;;;;;;;5080455;28;20048;-71
2021/06/12 10:57:03;;;;;;;4.45;4.05;;;;;;;;;;5079234;28;20131;-68
2021/06/12 10:59:57;;;;;;;6.28;3.75;;;;;;;;;;5077468;28;20052;-69
2021/06/12 11:02:29;;;;;;;7.53;3.85;;;;;;;;;;5082584;28;20045;-70
2021/06/12 11:04:59;;;;;;;4.15;3.75;;;;;;;;;;5081929;28;20048;-69
2021/06/12 11:07:30;;;;;;;6.80;4.35;;;;;;;;;;5080428;28;20047;-69
2021/06/12 11:10:22;;;;;;;8.60;4.30;;;;;;;;;;5087312;28;20101;-70
2021/06/12 11:12:48;;;;;;;6.53;4.32;;;;;;;;;;5086031;28;20526;-69
2021/06/12 11:15:27;;;;;;;4.78;3.97;;;;;;;;;;5083455;28;20055;-69
2021/06/12 11:18:15;;;;;;;6.22;4.65;;;;;;;;;;5083977;28;20036;-70
2021/06/12 11:20:45;;;;;;;7.05;3.80;;;;;;;;;;5081417;28;20472;-70
2021/06/12 11:23:14;;;;;;;6.90;3.60;;;;;;;;;;5083737;28;20094;-69
2021/06/12 11:25:56;;;;;;;7.68;3.92;;;;;;;;;;5085855;28;20040;-69
2021/06/12 11:28:25;;;;;;;6.78;4.47;;;;;;;;;;5081884;28;20045;-69
2021/06/12 11:30:52;;;;;;;5.85;4.20;;;;;;;;;;5084774;28;20054;-69
2021/06/12 11:33:18;;;;;;;18.90;5.20;;;;;;;;;;5080006;28;20048;-69
2021/06/12 11:35:48;;;;;;;7.28;4.60;;;;;;;;;;5081309;28;20060;-70
2021/06/12 11:38:16;;;;;;;12.60;4.75;;;;;;;;;;5082744;28;20059;-70
2021/06/12 11:40:51;;;;;;;5.50;4.22;;;;;;;;;;5083081;28;20059;-71
2021/06/12 11:43:33;;;;;;;9.32;4.47;;;;;;;;;;5079660;28;20559;-71
2021/06/12 11:46:00;;;;;;;7.60;4.22;;;;;;;;;;5083238;28;20537;-71
2021/06/12 11:48:26;;;;;;;6.05;4.78;;;;;;;;;;5083432;28;20481;-71
2021/06/12 11:50:55;;;;;;;4.75;4.13;;;;;;;;;;5082935;28;20044;-70
2021/06/12 11:53:33;;;;;;;4.80;4.30;;;;;;;;;;5084959;28;20048;-71
2021/06/12 11:56:00;;;;;;;5.05;4.47;;;;;;;;;;5088043;28;20048;-70
2021/06/12 11:58:26;;;;;;;5.82;4.40;;;;;;;;;;5075788;28;20059;-69
2021/06/12 12:00:52;;;;;;;6.55;4.43;;;;;;;;;;5082863;28;20098;-70
2021/06/12 12:03:19;;;;;;;6.82;4.65;;;;;;;;;;5088928;28;20062;-70
2021/06/12 12:05:47;;;;;;;28.45;6.00;;;;;;;;;;5089544;28;20055;-70
2021/06/12 12:08:15;;;;;;;8.55;4.30;;;;;;;;;;5078199;28;20071;-70
2021/06/12 12:10:44;;;;;;;6.45;4.85;;;;;;;;;;5087205;28;20044;-70
2021/06/12 12:13:24;;;;;;;4.78;4.30;;;;;;;;;;5084643;28;20052;-70
2021/06/12 12:15:50;;;;;;;7.20;4.47;;;;;;;;;;5082646;28;20044;-71
2021/06/12 12:18:18;;;;;;;5.53;4.55;;;;;;;;;;5087773;28;20059;-70
2021/06/12 12:20:49;;;;;;;6.03;4.10;;;;;;;;;;5081811;28;20087;-69
2021/06/12 12:23:22;;;;;;;6.93;4.82;;;;;;;;;;5089831;28;20527;-70
2021/06/12 12:25:50;;;;;;;5.80;3.90;;;;;;;;;;5082203;28;20063;-70
2021/06/12 12:28:20;;;;;;;11.00;4.38;;;;;;;;;;5092437;28;20143;-70
2021/06/12 12:30:47;;;;;;;7.75;4.28;;;;;;;;;;5094301;28;20059;-68
2021/06/12 12:33:16;;;;;;;5.95;4.18;;;;;;;;;;5083882;28;20083;-70
2021/06/12 12:35:42;;;;;;;4.30;3.80;;;;;;;;;;5074609;28;20473;-70
2021/06/12 12:38:14;;;;;;;5.88;3.65;;;;;;;;;;5091218;28;20444;-70
2021/06/12 12:40:41;;;;;;;7.22;3.97;;;;;;;;;;5090748;28;20044;-70
2021/06/12 12:43:11;;;;;;;5.80;3.95;;;;;;;;;;5090116;28;20055;-70
2021/06/12 12:45:40;;;;;;;4.35;3.95;;;;;;;;;;5076339;28;20469;-70
2021/06/12 12:48:06;;;;;;;5.20;4.18;;;;;;;;;;5083289;28;20500;-70
2021/06/12 12:50:32;;;;;;;6.75;4.30;;;;;;;;;;5081490;28;20390;-70
2021/06/12 12:53:07;;;;;;;5.20;3.58;;;;;;;;;;5075387;28;20052;-70
2021/06/12 12:55:33;;;;;;;8.27;4.50;;;;;;;;;;5093336;28;20044;-70
2021/06/12 12:58:02;;;;;;;7.22;4.38;;;;;;;;;;5079361;28;20047;-71
2021/06/12 13:00:30;;;;;;;6.10;4.18;;;;;;;;;;5082552;28;20048;-70
2021/06/12 13:02:57;;;;;;;7.60;4.43;;;;;;;;;;5090856;28;20048;-70
2021/06/12 13:05:24;;;;;;;6.65;4.03;;;;;;;;;;5088880;28;20489;-70
2021/06/12 13:07:58;;;;;;;7.70;4.40;;;;;;;;;;5078467;28;20056;-70
2021/06/12 13:10:32;;;;;;;5.07;4.57;;;;;;;;;;5074803;28;20048;-70
2021/06/12 13:13:01;;;;;;;4.80;4.30;;;;;;;;;;5081583;28;20298;-70
2021/06/12 13:15:27;;;;;;;4.88;4.05;;;;;;;;;;5084463;28;20056;-70
2021/06/12 13:18:05;;;;;;;5.40;4.07;;;;;;;;;;5079490;28;20064;-70
2021/06/12 13:20:31;;;;;;;5.05;4.07;;;;;;;;;;5073505;28;20064;-70
2021/06/12 13:22:57;;;;;;;7.25;4.40;;;;;;;;;;5090584;28;20052;-70
2021/06/12 13:25:25;;;;;;;4.35;3.95;;;;;;;;;;5073456;28;20121;-69
2021/06/12 13:27:54;;;;;;;4.32;3.83;;;;;;;;;;5085178;28;20131;-69
2021/06/12 13:30:33;;;;;;;9.70;4.72;;;;;;;;;;5079716;28;20102;-69
2021/06/12 13:33:02;;;;;;;5.00;4.22;;;;;;;;;;5081329;28;20438;-69
2021/06/12 13:35:29;;;;;;;5.60;4.63;;;;;;;;;;5076526;28;20123;-69
2021/06/12 13:38:05;;;;;;;4.80;3.92;;;;;;;;;;5082006;28;20044;-68
2021/06/12 13:40:31;;;;;;;4.60;4.20;;;;;;;;;;5079552;28;20430;-68
2021/06/12 13:42:57;;;;;;;5.80;4.50;;;;;;;;;;5077676;28;20485;-68
2021/06/12 13:45:23;;;;;;;5.30;4.32;;;;;;;;;;5083620;28;20392;-68
2021/06/12 13:47:51;;;;;;;5.55;4.10;;;;;;;;;;5086112;28;20040;-68
2021/06/12 13:50:17;;;;;;;4.85;4.35;;;;;;;;;;5089550;28;20109;-69
2021/06/12 13:52:43;;;;;;;5.57;4.20;;;;;;;;;;5072405;28;20412;-69
2021/06/12 13:55:12;;;;;;;11.30;4.68;;;;;;;;;;5082173;28;20135;-69
2021/06/12 13:57:38;;;;;;;4.75;4.15;;;;;;;;;;5076125;28;20056;-69
2021/06/12 14:00:06;;;;;;;4.72;4.05;;;;;;;;;;5082435;28;20059;-68
2021/06/12 14:02:32;;;;;;;6.95;4.55;;;;;;;;;;5098771;28;20050;-68
2021/06/12 14:05:00;;;;;;;13.57;5.15;;;;;;;;;;5090951;28;20056;-67
2021/06/12 14:07:26;;;;;;;7.82;4.25;;;;;;;;;;5096124;28;20048;-69
2021/06/12 14:09:52;;;;;;;5.80;4.03;;;;;;;;;;5086459;28;20052;-69
2021/06/12 14:12:18;;;;;;;5.65;4.50;;;;;;;;;;5083843;28;20058;-69
2021/06/12 14:14:45;;;;;;;5.45;4.00;;;;;;;;;;5077209;28;20060;-69
2021/06/12 14:17:11;;;;;;;7.95;4.28;;;;;;;;;;5082545;28;20121;-69
2021/06/12 14:19:37;;;;;;;5.65;4.63;;;;;;;;;;5086046;28;20048;-69
2021/06/12 14:22:05;;;;;;;5.47;4.50;;;;;;;;;;5081664;28;20380;-68
2021/06/12 14:24:31;;;;;;;6.15;4.18;;;;;;;;;;5078343;28;20048;-68
2021/06/12 14:26:57;;;;;;;5.15;4.30;;;;;;;;;;5080894;28;20048;-69
2021/06/12 14:29:25;;;;;;;6.85;4.15;;;;;;;;;;5083216;28;20052;-69
2021/06/12 14:31:51;;;;;;;6.05;4.57;;;;;;;;;;5088087;28;20055;-69
2021/06/12 14:34:18;;;;;;;5.75;4.60;;;;;;;;;;5091818;28;20048;-70
2021/06/12 14:36:44;;;;;;;5.57;4.82;;;;;;;;;;5091562;28;20044;-70
2021/06/12 14:39:11;;;;;;;6.55;4.90;;;;;;;;;;5076275;28;20044;-70
2021/06/12 14:41:39;;;;;;;11.02;9.55;;;;;;;;;;5083021;28;20396;-70
2021/06/12 14:44:05;;;;;;;9.25;6.03;;;;;;;;;;5085524;28;20107;-70